»·PEaware :: DPJ717 KVCV-KIFP

DPJ717 :: KVCV-KIFP

FLIGHT INFORMATION

Flight Status: Arrived
Operator: Unknown
More flights by this operator :: More flights under this callsign
Pilot: Ricardo U. (11497)
Aircraft: AIRBUS A320
(A320)
More flights by this aircraft type
Origin: KVCV Socal Logistics
United States
Destination: KIFP Laughlin/Bullhead Intl
United States
More flights between these airports :: More routes between these airports
Route: HEC V8 GFS
File this flight plan on PilotEdge
Remarks:
Altitude:
(Current/Filed)
21,000ft
Speed:
(Current/Filed)
380kts
Departed: 20-Jul-18 10:58 AM
Arrived: 20-Jul-18 11:34 AM
Distance/Time
Traveled:
143nm/0:36
Distance/Time
To Go:
Arrived

Flight Plot

Page will automatically refresh every two minutes.

Flight plan parsing failed; only flown route is shown


Map Options




Map Legend


Flown Route
Filed Route
Departure Airport
Arrival Airport
Navaid (VOR, NDB)
Fix

Horizontal Profiles

Position Reports

Time Latitude Longitude Heading Altitude Ground
Speed
20-Jul-18 09:34 34.587260 -117.375733 134 2865ft 0kts
20-Jul-18 09:35 34.587260 -117.375733 134 2865ft 0kts
20-Jul-18 09:36 34.587260 -117.375733 134 2865ft 0kts
20-Jul-18 09:37 34.587260 -117.375733 134 2865ft 0kts
20-Jul-18 09:38 34.587260 -117.375733 134 2865ft 0kts
20-Jul-18 09:39 34.587260 -117.375733 134 2865ft 0kts
20-Jul-18 09:40 34.587260 -117.375733 134 2865ft 0kts
20-Jul-18 09:41 34.587260 -117.375733 134 2865ft 0kts
20-Jul-18 09:42 34.587260 -117.375733 134 2865ft 0kts
20-Jul-18 09:43 34.587260 -117.375733 134 2865ft 0kts
20-Jul-18 09:44 34.587260 -117.375733 134 2865ft 0kts
20-Jul-18 09:45 34.587260 -117.375733 134 2865ft 0kts
20-Jul-18 09:46 34.587260 -117.375733 134 2865ft 0kts
20-Jul-18 09:47 34.587260 -117.375733 134 2865ft 0kts
20-Jul-18 09:48 34.587260 -117.375733 134 2865ft 0kts
20-Jul-18 09:49 34.587260 -117.375733 134 2865ft 0kts
20-Jul-18 09:50 34.587260 -117.375733 134 2865ft 0kts
20-Jul-18 09:51 34.587260 -117.375733 134 2865ft 0kts
20-Jul-18 09:52 34.587260 -117.375733 134 2865ft 0kts
20-Jul-18 09:53 34.587260 -117.375733 134 2865ft 0kts
20-Jul-18 09:54 34.587260 -117.375733 134 2865ft 0kts
20-Jul-18 09:55 34.587260 -117.375733 134 2865ft 0kts
20-Jul-18 09:56 34.587260 -117.375733 134 2865ft 0kts
20-Jul-18 09:57 34.587260 -117.375733 134 2865ft 0kts
20-Jul-18 09:58 34.587260 -117.375733 134 2865ft 0kts
20-Jul-18 09:59 34.587260 -117.375733 134 2865ft 0kts
20-Jul-18 10:00 34.587260 -117.375733 134 2865ft 0kts
20-Jul-18 10:01 34.587260 -117.375733 134 2865ft 0kts
20-Jul-18 10:02 34.587260 -117.375733 134 2865ft 0kts
20-Jul-18 10:03 34.587260 -117.375733 134 2865ft 0kts
20-Jul-18 10:04 34.587260 -117.375733 134 2865ft 0kts
20-Jul-18 10:05 34.587260 -117.375733 134 2865ft 0kts
20-Jul-18 10:06 34.587260 -117.375733 134 2865ft 0kts
20-Jul-18 10:07 34.587260 -117.375733 134 2865ft 0kts
20-Jul-18 10:08 34.587260 -117.375733 134 2865ft 0kts
20-Jul-18 10:09 34.587260 -117.375733 134 2865ft 0kts
20-Jul-18 10:10 34.587260 -117.375733 134 2865ft 0kts
20-Jul-18 10:11 34.587260 -117.375733 134 2865ft 0kts
20-Jul-18 10:12 34.587260 -117.375733 134 2865ft 0kts
20-Jul-18 10:13 34.587260 -117.375733 134 2865ft 0kts
20-Jul-18 10:14 34.587260 -117.375733 134 2865ft 0kts
20-Jul-18 10:15 34.587260 -117.375733 134 2865ft 0kts
20-Jul-18 10:16 34.587260 -117.375733 134 2865ft 0kts
20-Jul-18 10:17 34.587260 -117.375733 134 2865ft 0kts
20-Jul-18 10:18 34.587260 -117.375733 134 2865ft 0kts
20-Jul-18 10:19 34.587260 -117.375733 134 2865ft 0kts
20-Jul-18 10:20 34.587260 -117.375733 134 2865ft 0kts
20-Jul-18 10:21 34.587260 -117.375733 134 2865ft 0kts
20-Jul-18 10:22 34.587260 -117.375733 134 2865ft 0kts
20-Jul-18 10:23 34.587260 -117.375733 134 2865ft 0kts
20-Jul-18 10:24 34.587260 -117.375733 134 2865ft 0kts
20-Jul-18 10:25 34.587260 -117.375733 134 2865ft 0kts
20-Jul-18 10:26 34.587260 -117.375733 134 2865ft 0kts
20-Jul-18 10:27 34.587260 -117.375733 134 2865ft 0kts
20-Jul-18 10:28 34.587260 -117.375733 134 2865ft 0kts
20-Jul-18 10:29 34.587260 -117.375733 134 2865ft 0kts
20-Jul-18 10:30 34.587260 -117.375733 134 2865ft 0kts
20-Jul-18 10:31 34.587260 -117.375733 134 2865ft 0kts
20-Jul-18 10:32 34.587260 -117.375733 134 2865ft 0kts
20-Jul-18 10:33 34.587260 -117.375733 134 2865ft 0kts
20-Jul-18 10:34 34.587260 -117.375733 134 2865ft 0kts
20-Jul-18 10:35 34.587260 -117.375733 134 2865ft 0kts
20-Jul-18 10:36 34.587260 -117.375733 134 2865ft 0kts
20-Jul-18 10:37 34.587260 -117.375733 134 2865ft 0kts
20-Jul-18 10:38 34.587260 -117.375733 134 2865ft 0kts
20-Jul-18 10:39 34.587260 -117.375733 134 2865ft 0kts
20-Jul-18 10:40 34.587260 -117.375733 134 2865ft 0kts
20-Jul-18 10:41 34.587260 -117.375733 134 2865ft 0kts
20-Jul-18 10:42 34.587260 -117.375733 134 2865ft 0kts
20-Jul-18 10:43 34.587260 -117.375733 134 2865ft 0kts
20-Jul-18 10:44 34.587260 -117.375733 134 2865ft 0kts
20-Jul-18 10:45 34.587260 -117.375733 134 2865ft 0kts
20-Jul-18 10:46 34.587260 -117.375733 134 2865ft 0kts
20-Jul-18 10:47 34.587276 -117.375753 134 2865ft 1kts
20-Jul-18 10:48 34.587741 -117.376283 138 2865ft 2kts
20-Jul-18 10:49 34.588213 -117.376821 129 2865ft 2kts
20-Jul-18 10:50 34.588300 -117.377449 44 2865ft 2kts
20-Jul-18 10:51 34.588263 -117.377493 44 2865ft 0kts
20-Jul-18 10:52 34.588264 -117.377493 44 2865ft 0kts
20-Jul-18 10:53 34.589582 -117.375925 44 2865ft 17kts
20-Jul-18 10:54 34.592759 -117.371879 78 2865ft 13kts
20-Jul-18 10:55 34.592842 -117.367362 51 2865ft 13kts
20-Jul-18 10:56 34.597501 -117.366233 10 2865ft 21kts
20-Jul-18 10:57 34.599533 -117.366224 335 2865ft 0kts
20-Jul-18 10:58 34.599770 -117.367453 223 2865ft 11kts
20-Jul-18 10:59 34.576858 -117.394811 227 3692ft 165kts
20-Jul-18 11:00 34.564593 -117.444353 261 4970ft 160kts
20-Jul-18 11:01 34.575223 -117.492534 354 5932ft 176kts
20-Jul-18 11:02 34.611236 -117.446187 38 6632ft 237kts
20-Jul-18 11:03 34.681537 -117.411517 21 8140ft 294kts
20-Jul-18 11:04 34.759769 -117.376692 22 10472ft 308kts
20-Jul-18 11:05 34.807454 -117.293854 93 11344ft 347kts
20-Jul-18 11:06 34.804440 -117.168425 92 12402ft 385kts
20-Jul-18 11:07 34.803661 -117.036397 92 14218ft 394kts
20-Jul-18 11:08 34.802297 -116.900926 92 15802ft 405kts
20-Jul-18 11:09 34.800742 -116.761851 92 17339ft 415kts
20-Jul-18 11:10 34.799033 -116.620128 92 18792ft 424kts
20-Jul-18 11:11 34.797779 -116.475240 88 20154ft 434kts
20-Jul-18 11:12 34.831850 -116.331672 73 21099ft 447kts
20-Jul-18 11:13 34.869755 -116.187515 74 21081ft 447kts
20-Jul-18 11:14 34.907745 -116.043468 74 21074ft 447kts
20-Jul-18 11:15 34.945387 -115.899241 74 20963ft 438kts
20-Jul-18 11:16 34.980110 -115.765722 74 19516ft 402kts
20-Jul-18 11:17 35.013341 -115.637169 74 17171ft 392kts
20-Jul-18 11:18 35.045538 -115.511931 74 14920ft 380kts
20-Jul-18 11:19 35.076429 -115.391378 74 13166ft 355kts
20-Jul-18 11:20 35.096943 -115.276347 81 12089ft 340kts
20-Jul-18 11:21 35.114165 -115.163832 81 10401ft 329kts
20-Jul-18 11:22 35.129110 -115.060745 82 9620ft 296kts
20-Jul-18 11:23 35.125030 -114.960774 95 8654ft 303kts
20-Jul-18 11:24 35.117290 -114.860817 96 9022ft 294kts
20-Jul-18 11:25 35.109389 -114.761660 96 8851ft 290kts
20-Jul-18 11:26 35.111532 -114.670425 43 7498ft 262kts
20-Jul-18 11:27 35.160285 -114.617014 112 5646ft 217kts
20-Jul-18 11:28 35.110193 -114.607063 182 4173ft 162kts
20-Jul-18 11:29 35.107798 -114.574078 30 2663ft 150kts
20-Jul-18 11:30 35.148393 -114.558809 352 834ft 162kts
20-Jul-18 11:31 35.192272 -114.578262 272 2123ft 185kts
20-Jul-18 11:32 35.152217 -114.587326 162 2165ft 173kts
20-Jul-18 11:33 35.109216 -114.577516 116 1834ft 162kts
20-Jul-18 11:34 35.139215 -114.558189 353 963ft 138kts
20-Jul-18 11:35 35.161408 -114.559157 41 655ft 20kts
20-Jul-18 11:36 35.162236 -114.558042 82 655ft 7kts
20-Jul-18 11:37 35.163645 -114.557265 356 655ft 5kts
20-Jul-18 11:38 35.164555 -114.556570 82 655ft 0kts
20-Jul-18 11:39 35.164555 -114.556570 82 655ft 0kts
20-Jul-18 11:40 35.164555 -114.556570 82 655ft 0kts
20-Jul-18 11:41 35.164555 -114.556570 82 655ft 0kts
20-Jul-18 11:42 35.164555 -114.556570 82 655ft 0kts
20-Jul-18 11:43 35.164555 -114.556570 82 655ft 0kts
20-Jul-18 11:44 35.164555 -114.556570 82 655ft 0kts

Navigation Log

Ident Type
Flight plan parsing failed, navigation log unavailable